PPQ weather

Paraparaumu Airport
Wellington Region, New Zealand

Public forecast

Using degrees Celsius for public forecast. Weather courtesy of forecast.io.

Closest aviation weather report (METAR) to Paraparaumu Airport

Closest report is Wellington International Airport, 26.7 nm (49.4 km) SSW. Retrieved 2020/01/20 11:30 UTC (0 seconds ago):

NZWN 201130Z AUTO 24001KT 9999 NCD 16/14 Q1015 NOSIG

Closest aviation forecast (TAF) to Paraparaumu Airport

Closest forecast is Wellington International Airport, 26.7 nm (49.4 km) SSW. Retrieved 2020/01/20 06:06 UTC (5 hours ago):

TAF NZWN 200501Z 2006/2106 19012KT 9999 FEW008 BECMG 2009/2011 01005KT PROB30 TEMPO 2016/2020 BKN008 BECMG 2020/2022 18010KT